[16 JAN 2021 | 18-22z] Frankfurt-Heathrow-Shuttle

Zu Eventkalender hinzugefügt: 16.01.21

Patrick Buerhaus

1320216
RG Frankfurt - Event


VATSIM Germany und VATSIM UK sind begeistert wieder zu einem Frankfurt-Heathrow Shuttle einzuladen! Am 16. Januar zwischen 1800z und 2200z ist es soweit - Die Tore werden geöffnet und die beiden meistbesuchten Flughäfen von 2019 werden die Luftstraßen zum Glühen bringen. Daher packt etwas mehr Sprit ein und bereitet euch auf kurzfriste Pistenänderungen im Anflug vor. Informationen und Routen folgen unten.

---

VATSIM UK and VATSIM Germany are happy to announce another Heathrow-Frankfurt Shuttle! Come and fly between these 2 major airports between 1800z and 2200z on the 16th of January. Bring your favorite aircraft and a little bit of holding fuel as it´s going to be busy - routes are included below.

Charts EDDF: https://vatsim-germany.org/pilots/aerodrome/eddf
Charts EGLL: https://www.vatsim.uk/airports/EGLL

EGLL-EDDF: DET L6 DVR UL9 KONAN UL607 SPI T180 UNOKO
EGLL-EDDF: BPK Q295 BRAIN M197 REDFA L620 TACHA DCT RENDI Z739 MISGO DCT DIXAT T149 LIPMI T911 ROLIS
EDDF-EGLL: OBOKA Z29 TORNU DCT BREDA DCT ABNED L980 LOGAN
EDDF-EGLL: SOBRA Y180 DIK UN857 RENSA DCT ABNUR UT10 ALESO
 

Jonas Scholz

1119615
RG Frankfurt - Mentor
Das ist heute!

Wer im Turnaround in LHR zu viel Verspätung sammelt hat in Frankfurt sogar die Chance auf Schnee!

EDDF 160500Z 1606/1712 32006KT 9999 FEW025 BKN045 BECMG 1610/1612 25005KT TEMPO 1615/1622 SCT030 BECMG 1617/1620 19006KT FM162200 17005KT 4000 -SN SCT007 BKN030 BECMG 1622/1624 BKN007 TEMPO 1623/1704 1200SN VV003 TEMPO 1704/1712 BKN004 PROB40 TEMPO 1708/1711 2000 SN

England erwartet euch mit feinstem Regenwetter und niedriger Bewölkung:
EGLL 160500Z 1606/1712 17012KT 9999 -RA FEW010 BKN025 BECMG 1606/1608 6000 BKN010 TEMPO 1606/1610 18015G25KT 2000 RASN BKN003 PROB30 TEMPO 1606/1609 1200 +RASN BECMG 1610/1613 23012KT TEMPO 1610/1614 3000RADZ BKN004 PROB30 TEMPO 1610/1614 20015G25KT BECMG 1614/1617 30010KT 9999 NSW FEW030
 
Vielen Dank für das Event, das ist schon immer sehr eindrucksvoll, wenn der Frankfurter Flughafen so ans Limit kommt :)

Eine Anmerkung habe ich aber noch: Ich habe das Thema jetzt länger nicht mehr verfolgt, aber wie sieht es momentan eigentlich mit PDC-Service bei solchen Events aus? Ich finde es bei solchen Events immer schade, wenn die Freude dadurch getrübt wird, dass man lange versucht, irgendwie auf der Delivery-Frequenz durchzukommen. Da wäre PDC für mich eine große Erleichterung - auf allen weiteren Frequenzen hat ja dank der zahlreichen Controller die Kommunikation extrem gut funktioniert.
 
Oben